sensor_id;sensor_type;location;lat;lon;timestamp;temperature;humidity
33699;DHT22;20032;52.436;13.312;2023-04-29T00:00:12;12.10;99.90
33699;DHT22;20032;52.436;13.312;2023-04-29T00:02:37;12.10;99.90
33699;DHT22;20032;52.436;13.312;2023-04-29T00:05:03;12.10;99.90
33699;DHT22;20032;52.436;13.312;2023-04-29T00:07:30;12.10;99.90
33699;DHT22;20032;52.436;13.312;2023-04-29T00:09:57;12.10;99.90
33699;DHT22;20032;52.436;13.312;2023-04-29T00:12:22;12.00;99.90
33699;DHT22;20032;52.436;13.312;2023-04-29T00:14:48;12.00;99.90
33699;DHT22;20032;52.436;13.312;2023-04-29T00:17:13;12.00;99.90
33699;DHT22;20032;52.436;13.312;2023-04-29T00:19:39;11.90;99.90
33699;DHT22;20032;52.436;13.312;2023-04-29T00:22:05;11.90;99.90
33699;DHT22;20032;52.436;13.312;2023-04-29T00:24:30;11.90;99.90
33699;DHT22;20032;52.436;13.312;2023-04-29T00:26:56;11.90;99.90
33699;DHT22;20032;52.436;13.312;2023-04-29T00:29:21;12.00;99.90
33699;DHT22;20032;52.436;13.312;2023-04-29T00:31:48;11.90;99.90
33699;DHT22;20032;52.436;13.312;2023-04-29T00:34:13;12.00;99.90
33699;DHT22;20032;52.436;13.312;2023-04-29T00:36:38;12.00;99.90
33699;DHT22;20032;52.436;13.312;2023-04-29T00:39:04;11.90;99.90
33699;DHT22;20032;52.436;13.312;2023-04-29T00:41:30;11.90;99.90
33699;DHT22;20032;52.436;13.312;2023-04-29T00:43:56;11.90;99.90
33699;DHT22;20032;52.436;13.312;2023-04-29T00:46:22;11.90;99.90
33699;DHT22;20032;52.436;13.312;2023-04-29T00:48:48;11.90;99.90
33699;DHT22;20032;52.436;13.312;2023-04-29T00:51:15;11.90;99.90
33699;DHT22;20032;52.436;13.312;2023-04-29T00:53:41;11.90;99.90
33699;DHT22;20032;52.436;13.312;2023-04-29T00:56:07;12.00;99.90
33699;DHT22;20032;52.436;13.312;2023-04-29T00:58:33;12.10;99.90
33699;DHT22;20032;52.436;13.312;2023-04-29T01:01:01;12.10;99.90
33699;DHT22;20032;52.436;13.312;2023-04-29T01:03:29;12.10;99.90
33699;DHT22;20032;52.436;13.312;2023-04-29T01:06:08;12.00;99.90
33699;DHT22;20032;52.436;13.312;2023-04-29T01:08:47;11.90;99.90
33699;DHT22;20032;52.436;13.312;2023-04-29T01:11:19;11.90;99.90
33699;DHT22;20032;52.436;13.312;2023-04-29T01:13:50;11.80;99.90
33699;DHT22;20032;52.436;13.312;2023-04-29T01:16:36;11.50;99.90
33699;DHT22;20032;52.436;13.312;2023-04-29T01:19:11;11.50;99.90
33699;DHT22;20032;52.436;13.312;2023-04-29T01:21:46;11.50;99.90
33699;DHT22;20032;52.436;13.312;2023-04-29T01:24:13;11.60;99.90
33699;DHT22;20032;52.436;13.312;2023-04-29T01:26:39;11.60;99.90
33699;DHT22;20032;52.436;13.312;2023-04-29T01:29:27;11.60;99.90
33699;DHT22;20032;52.436;13.312;2023-04-29T01:32:03;11.50;99.90
33699;DHT22;20032;52.436;13.312;2023-04-29T01:37:21;11.20;99.90
33699;DHT22;20032;52.436;13.312;2023-04-29T01:39:59;11.20;99.90
33699;DHT22;20032;52.436;13.312;2023-04-29T01:42:38;11.20;99.90
33699;DHT22;20032;52.436;13.312;2023-04-29T01:45:06;11.20;99.90
33699;DHT22;20032;52.436;13.312;2023-04-29T01:47:32;11.10;99.90
33699;DHT22;20032;52.436;13.312;2023-04-29T01:50:00;11.10;99.90
33699;DHT22;20032;52.436;13.312;2023-04-29T01:52:26;11.10;99.90
33699;DHT22;20032;52.436;13.312;2023-04-29T01:54:52;11.20;99.90
33699;DHT22;20032;52.436;13.312;2023-04-29T01:57:18;11.10;99.90
33699;DHT22;20032;52.436;13.312;2023-04-29T01:59:43;11.00;99.90
33699;DHT22;20032;52.436;13.312;2023-04-29T02:02:09;11.00;99.90
33699;DHT22;20032;52.436;13.312;2023-04-29T02:04:34;10.90;99.90
33699;DHT22;20032;52.436;13.312;2023-04-29T02:07:00;10.90;99.90
33699;DHT22;20032;52.436;13.312;2023-04-29T02:09:26;10.90;99.90
33699;DHT22;20032;52.436;13.312;2023-04-29T02:11:51;11.00;99.90
33699;DHT22;20032;52.436;13.312;2023-04-29T02:14:17;11.00;99.90
33699;DHT22;20032;52.436;13.312;2023-04-29T02:16:43;11.10;99.90
33699;DHT22;20032;52.436;13.312;2023-04-29T02:19:10;11.10;99.90
33699;DHT22;20032;52.436;13.312;2023-04-29T02:21:35;11.10;99.90
33699;DHT22;20032;52.436;13.312;2023-04-29T02:24:01;11.10;99.90
33699;DHT22;20032;52.436;13.312;2023-04-29T02:26:27;11.00;99.90
33699;DHT22;20032;52.436;13.312;2023-04-29T02:28:52;11.00;99.90
33699;DHT22;20032;52.436;13.312;2023-04-29T02:31:17;11.10;99.90
33699;DHT22;20032;52.436;13.312;2023-04-29T02:33:43;11.10;99.90
33699;DHT22;20032;52.436;13.312;2023-04-29T02:36:08;11.20;99.90
33699;DHT22;20032;52.436;13.312;2023-04-29T02:38:34;11.10;99.90
33699;DHT22;20032;52.436;13.312;2023-04-29T02:40:59;11.10;99.90
33699;DHT22;20032;52.436;13.312;2023-04-29T02:43:25;11.20;99.90
33699;DHT22;20032;52.436;13.312;2023-04-29T02:45:52;11.20;99.90
33699;DHT22;20032;52.436;13.312;2023-04-29T02:48:17;11.30;99.90
33699;DHT22;20032;52.436;13.312;2023-04-29T02:50:42;11.30;99.90
33699;DHT22;20032;52.436;13.312;2023-04-29T02:53:08;11.30;99.90
33699;DHT22;20032;52.436;13.312;2023-04-29T02:55:33;11.20;99.90
33699;DHT22;20032;52.436;13.312;2023-04-29T02:57:59;11.20;99.90
33699;DHT22;20032;52.436;13.312;2023-04-29T03:00:24;11.20;99.90
33699;DHT22;20032;52.436;13.312;2023-04-29T03:02:50;11.20;99.90
33699;DHT22;20032;52.436;13.312;2023-04-29T03:05:15;11.20;99.90
33699;DHT22;20032;52.436;13.312;2023-04-29T03:07:41;11.20;99.90
33699;DHT22;20032;52.436;13.312;2023-04-29T03:10:07;11.20;99.90
33699;DHT22;20032;52.436;13.312;2023-04-29T03:12:33;11.20;99.90
33699;DHT22;20032;52.436;13.312;2023-04-29T03:14:58;11.20;99.90
33699;DHT22;20032;52.436;13.312;2023-04-29T03:17:24;11.20;99.90
33699;DHT22;20032;52.436;13.312;2023-04-29T03:19:49;11.20;99.90
33699;DHT22;20032;52.436;13.312;2023-04-29T03:22:17;11.30;99.90
33699;DHT22;20032;52.436;13.312;2023-04-29T03:24:42;11.40;99.90
33699;DHT22;20032;52.436;13.312;2023-04-29T03:27:08;11.40;99.90
33699;DHT22;20032;52.436;13.312;2023-04-29T03:29:35;11.40;99.90
33699;DHT22;20032;52.436;13.312;2023-04-29T03:32:00;11.40;99.90
33699;DHT22;20032;52.436;13.312;2023-04-29T03:34:27;11.50;99.90
33699;DHT22;20032;52.436;13.312;2023-04-29T03:36:52;11.40;99.90
33699;DHT22;20032;52.436;13.312;2023-04-29T03:39:18;11.50;99.90
33699;DHT22;20032;52.436;13.312;2023-04-29T03:41:45;11.40;99.90
33699;DHT22;20032;52.436;13.312;2023-04-29T03:44:11;11.50;99.90
33699;DHT22;20032;52.436;13.312;2023-04-29T03:46:36;11.50;99.90
33699;DHT22;20032;52.436;13.312;2023-04-29T03:49:02;11.50;99.90
33699;DHT22;20032;52.436;13.312;2023-04-29T03:51:28;11.50;99.90
33699;DHT22;20032;52.436;13.312;2023-04-29T03:53:54;11.60;99.90
33699;DHT22;20032;52.436;13.312;2023-04-29T03:56:22;11.60;99.90
33699;DHT22;20032;52.436;13.312;2023-04-29T03:58:47;11.60;99.90
33699;DHT22;20032;52.436;13.312;2023-04-29T04:01:13;11.60;99.90
33699;DHT22;20032;52.436;13.312;2023-04-29T04:03:39;11.50;99.90
33699;DHT22;20032;52.436;13.312;2023-04-29T04:06:05;11.50;99.90
33699;DHT22;20032;52.436;13.312;2023-04-29T04:08:30;11.50;99.90
33699;DHT22;20032;52.436;13.312;2023-04-29T04:10:56;11.60;99.90
33699;DHT22;20032;52.436;13.312;2023-04-29T04:13:27;11.60;99.90
33699;DHT22;20032;52.436;13.312;2023-04-29T04:15:53;11.60;99.90
33699;DHT22;20032;52.436;13.312;2023-04-29T04:18:18;11.60;99.90
33699;DHT22;20032;52.436;13.312;2023-04-29T04:20:44;11.70;99.90
33699;DHT22;20032;52.436;13.312;2023-04-29T04:23:09;11.70;99.90
33699;DHT22;20032;52.436;13.312;2023-04-29T04:25:35;11.80;99.90
33699;DHT22;20032;52.436;13.312;2023-04-29T04:28:01;11.80;99.90
33699;DHT22;20032;52.436;13.312;2023-04-29T04:30:26;11.80;99.90
33699;DHT22;20032;52.436;13.312;2023-04-29T04:32:52;11.80;99.90
33699;DHT22;20032;52.436;13.312;2023-04-29T04:35:17;11.70;99.90
33699;DHT22;20032;52.436;13.312;2023-04-29T04:37:43;11.80;99.90
33699;DHT22;20032;52.436;13.312;2023-04-29T04:40:09;11.80;99.90
33699;DHT22;20032;52.436;13.312;2023-04-29T04:42:36;11.90;99.90
33699;DHT22;20032;52.436;13.312;2023-04-29T04:45:01;11.90;99.90
33699;DHT22;20032;52.436;13.312;2023-04-29T04:47:27;11.90;99.90
33699;DHT22;20032;52.436;13.312;2023-04-29T04:49:54;11.90;99.90
33699;DHT22;20032;52.436;13.312;2023-04-29T04:52:20;11.90;99.90
33699;DHT22;20032;52.436;13.312;2023-04-29T04:54:46;11.90;99.90
33699;DHT22;20032;52.436;13.312;2023-04-29T04:57:12;11.90;99.90
33699;DHT22;20032;52.436;13.312;2023-04-29T04:59:38;11.80;99.90
33699;DHT22;20032;52.436;13.312;2023-04-29T05:02:03;11.80;99.90
33699;DHT22;20032;52.436;13.312;2023-04-29T05:04:29;11.90;99.90
33699;DHT22;20032;52.436;13.312;2023-04-29T05:06:54;11.90;99.90
33699;DHT22;20032;52.436;13.312;2023-04-29T05:09:20;11.90;99.90
33699;DHT22;20032;52.436;13.312;2023-04-29T05:11:45;11.90;99.90
33699;DHT22;20032;52.436;13.312;2023-04-29T05:14:11;11.90;99.90
33699;DHT22;20032;52.436;13.312;2023-04-29T05:16:36;11.90;99.90
33699;DHT22;20032;52.436;13.312;2023-04-29T05:19:02;11.90;99.90
33699;DHT22;20032;52.436;13.312;2023-04-29T05:21:28;12.00;99.90
33699;DHT22;20032;52.436;13.312;2023-04-29T05:23:53;11.90;99.90
33699;DHT22;20032;52.436;13.312;2023-04-29T05:26:18;12.00;99.90
33699;DHT22;20032;52.436;13.312;2023-04-29T05:28:44;11.90;99.90
33699;DHT22;20032;52.436;13.312;2023-04-29T05:31:09;12.00;99.90
33699;DHT22;20032;52.436;13.312;2023-04-29T05:33:35;12.00;99.90
33699;DHT22;20032;52.436;13.312;2023-04-29T05:36:01;12.00;99.90
33699;DHT22;20032;52.436;13.312;2023-04-29T05:38:26;12.00;99.90
33699;DHT22;20032;52.436;13.312;2023-04-29T05:40:54;12.00;99.90
33699;DHT22;20032;52.436;13.312;2023-04-29T05:43:20;12.00;99.90
33699;DHT22;20032;52.436;13.312;2023-04-29T05:45:46;12.00;99.90
33699;DHT22;20032;52.436;13.312;2023-04-29T05:48:11;12.00;99.90
33699;DHT22;20032;52.436;13.312;2023-04-29T05:50:37;11.90;99.90
33699;DHT22;20032;52.436;13.312;2023-04-29T05:53:02;11.90;99.90
33699;DHT22;20032;52.436;13.312;2023-04-29T05:55:29;11.90;99.90
33699;DHT22;20032;52.436;13.312;2023-04-29T05:57:55;11.90;99.90
33699;DHT22;20032;52.436;13.312;2023-04-29T06:00:20;12.00;99.90
33699;DHT22;20032;52.436;13.312;2023-04-29T06:02:46;12.00;99.90
33699;DHT22;20032;52.436;13.312;2023-04-29T06:05:11;12.10;99.90
33699;DHT22;20032;52.436;13.312;2023-04-29T06:07:38;12.00;99.90
33699;DHT22;20032;52.436;13.312;2023-04-29T06:10:04;12.10;99.90
33699;DHT22;20032;52.436;13.312;2023-04-29T06:12:29;12.10;99.90
33699;DHT22;20032;52.436;13.312;2023-04-29T06:14:55;12.10;99.90
33699;DHT22;20032;52.436;13.312;2023-04-29T06:17:21;12.10;99.90
33699;DHT22;20032;52.436;13.312;2023-04-29T06:19:46;12.10;99.90
33699;DHT22;20032;52.436;13.312;2023-04-29T06:22:12;12.10;99.90
33699;DHT22;20032;52.436;13.312;2023-04-29T06:24:37;12.10;99.90
33699;DHT22;20032;52.436;13.312;2023-04-29T06:27:02;12.10;99.90
33699;DHT22;20032;52.436;13.312;2023-04-29T06:29:28;12.20;99.90
33699;DHT22;20032;52.436;13.312;2023-04-29T06:31:54;12.20;99.90
33699;DHT22;20032;52.436;13.312;2023-04-29T06:34:20;12.20;99.90
33699;DHT22;20032;52.436;13.312;2023-04-29T06:36:46;12.20;99.90
33699;DHT22;20032;52.436;13.312;2023-04-29T06:39:11;12.20;99.90
33699;DHT22;20032;52.436;13.312;2023-04-29T06:41:37;12.30;99.90
33699;DHT22;20032;52.436;13.312;2023-04-29T06:44:02;12.20;99.90
33699;DHT22;20032;52.436;13.312;2023-04-29T06:46:28;12.30;99.90
33699;DHT22;20032;52.436;13.312;2023-04-29T06:48:53;12.30;99.90
33699;DHT22;20032;52.436;13.312;2023-04-29T06:51:19;12.30;99.90
33699;DHT22;20032;52.436;13.312;2023-04-29T06:53:44;12.30;99.90
33699;DHT22;20032;52.436;13.312;2023-04-29T06:56:11;12.20;99.90
33699;DHT22;20032;52.436;13.312;2023-04-29T06:58:36;12.20;99.90
33699;DHT22;20032;52.436;13.312;2023-04-29T07:01:02;12.20;99.90
33699;DHT22;20032;52.436;13.312;2023-04-29T07:03:29;12.20;99.90
33699;DHT22;20032;52.436;13.312;2023-04-29T07:05:54;12.20;99.90
33699;DHT22;20032;52.436;13.312;2023-04-29T07:08:20;12.30;99.90
33699;DHT22;20032;52.436;13.312;2023-04-29T07:10:56;12.20;99.90
33699;DHT22;20032;52.436;13.312;2023-04-29T07:13:22;12.30;99.90
33699;DHT22;20032;52.436;13.312;2023-04-29T07:15:47;12.20;99.90
33699;DHT22;20032;52.436;13.312;2023-04-29T07:18:13;12.20;99.90
33699;DHT22;20032;52.436;13.312;2023-04-29T07:20:38;12.10;99.90
33699;DHT22;20032;52.436;13.312;2023-04-29T07:23:05;12.10;99.90
33699;DHT22;20032;52.436;13.312;2023-04-29T07:25:30;12.10;99.90
33699;DHT22;20032;52.436;13.312;2023-04-29T07:27:56;12.00;99.90
33699;DHT22;20032;52.436;13.312;2023-04-29T07:30:22;12.00;99.90
33699;DHT22;20032;52.436;13.312;2023-04-29T07:32:48;11.90;99.90
33699;DHT22;20032;52.436;13.312;2023-04-29T07:35:13;11.90;99.90
33699;DHT22;20032;52.436;13.312;2023-04-29T07:37:39;11.90;99.90
33699;DHT22;20032;52.436;13.312;2023-04-29T07:40:06;11.90;99.90
33699;DHT22;20032;52.436;13.312;2023-04-29T07:42:32;11.90;99.90
33699;DHT22;20032;52.436;13.312;2023-04-29T07:44:57;11.90;99.90
33699;DHT22;20032;52.436;13.312;2023-04-29T07:47:22;11.90;99.90
33699;DHT22;20032;52.436;13.312;2023-04-29T07:49:48;11.90;99.90
33699;DHT22;20032;52.436;13.312;2023-04-29T07:52:13;11.90;99.90
33699;DHT22;20032;52.436;13.312;2023-04-29T07:54:39;11.90;99.90
33699;DHT22;20032;52.436;13.312;2023-04-29T07:57:04;12.00;99.90
33699;DHT22;20032;52.436;13.312;2023-04-29T07:59:30;12.00;99.90
33699;DHT22;20032;52.436;13.312;2023-04-29T08:01:56;11.90;99.90
33699;DHT22;20032;52.436;13.312;2023-04-29T08:04:21;11.90;99.90
33699;DHT22;20032;52.436;13.312;2023-04-29T08:06:47;11.90;99.90
33699;DHT22;20032;52.436;13.312;2023-04-29T08:09:13;11.90;99.90
33699;DHT22;20032;52.436;13.312;2023-04-29T08:11:39;11.90;99.90
33699;DHT22;20032;52.436;13.312;2023-04-29T08:14:05;11.90;99.90
33699;DHT22;20032;52.436;13.312;2023-04-29T08:16:30;11.90;99.90
33699;DHT22;20032;52.436;13.312;2023-04-29T08:18:56;11.90;99.90
33699;DHT22;20032;52.436;13.312;2023-04-29T08:21:22;11.80;99.90
33699;DHT22;20032;52.436;13.312;2023-04-29T08:23:47;11.70;99.90
33699;DHT22;20032;52.436;13.312;2023-04-29T08:26:13;11.70;99.90
33699;DHT22;20032;52.436;13.312;2023-04-29T08:28:39;11.70;99.90
33699;DHT22;20032;52.436;13.312;2023-04-29T08:31:05;11.70;99.90
33699;DHT22;20032;52.436;13.312;2023-04-29T08:33:33;11.80;99.90
33699;DHT22;20032;52.436;13.312;2023-04-29T08:35:59;11.80;99.90
33699;DHT22;20032;52.436;13.312;2023-04-29T08:38:28;11.80;99.90
33699;DHT22;20032;52.436;13.312;2023-04-29T08:40:53;11.80;99.90
33699;DHT22;20032;52.436;13.312;2023-04-29T08:43:20;11.80;99.90
33699;DHT22;20032;52.436;13.312;2023-04-29T08:45:47;11.90;99.90
33699;DHT22;20032;52.436;13.312;2023-04-29T08:48:15;11.90;99.90
33699;DHT22;20032;52.436;13.312;2023-04-29T08:50:41;11.80;99.90
33699;DHT22;20032;52.436;13.312;2023-04-29T08:53:08;11.80;99.90
33699;DHT22;20032;52.436;13.312;2023-04-29T08:55:36;11.80;99.90
33699;DHT22;20032;52.436;13.312;2023-04-29T08:58:01;11.80;99.90
33699;DHT22;20032;52.436;13.312;2023-04-29T09:00:27;11.70;99.90
33699;DHT22;20032;52.436;13.312;2023-04-29T09:02:56;11.70;99.90
33699;DHT22;20032;52.436;13.312;2023-04-29T09:05:23;11.70;99.90
33699;DHT22;20032;52.436;13.312;2023-04-29T09:07:50;11.70;99.90
33699;DHT22;20032;52.436;13.312;2023-04-29T09:10:17;11.80;99.90
33699;DHT22;20032;52.436;13.312;2023-04-29T09:12:43;11.90;99.90
33699;DHT22;20032;52.436;13.312;2023-04-29T09:15:08;11.80;99.90
33699;DHT22;20032;52.436;13.312;2023-04-29T09:17:44;11.80;99.90
33699;DHT22;20032;52.436;13.312;2023-04-29T09:20:26;11.70;99.90
33699;DHT22;20032;52.436;13.312;2023-04-29T09:22:55;11.70;99.90
33699;DHT22;20032;52.436;13.312;2023-04-29T09:25:21;11.70;99.90
33699;DHT22;20032;52.436;13.312;2023-04-29T09:27:47;11.70;99.90
33699;DHT22;20032;52.436;13.312;2023-04-29T09:30:13;11.70;99.90
33699;DHT22;20032;52.436;13.312;2023-04-29T09:32:40;11.70;99.90
33699;DHT22;20032;52.436;13.312;2023-04-29T09:35:23;11.70;99.90
33699;DHT22;20032;52.436;13.312;2023-04-29T09:37:50;11.70;99.90
33699;DHT22;20032;52.436;13.312;2023-04-29T09:40:33;11.60;99.90
33699;DHT22;20032;52.436;13.312;2023-04-29T09:42:59;11.70;99.90
33699;DHT22;20032;52.436;13.312;2023-04-29T09:45:33;11.70;99.90
33699;DHT22;20032;52.436;13.312;2023-04-29T09:48:03;11.60;99.90
33699;DHT22;20032;52.436;13.312;2023-04-29T09:50:29;11.60;99.90
33699;DHT22;20032;52.436;13.312;2023-04-29T09:52:55;11.60;99.90
33699;DHT22;20032;52.436;13.312;2023-04-29T09:55:20;11.50;99.90
33699;DHT22;20032;52.436;13.312;2023-04-29T09:57:46;11.50;99.90
33699;DHT22;20032;52.436;13.312;2023-04-29T10:00:12;11.50;99.90
33699;DHT22;20032;52.436;13.312;2023-04-29T10:02:41;11.60;99.90
33699;DHT22;20032;52.436;13.312;2023-04-29T10:05:07;11.60;99.90
33699;DHT22;20032;52.436;13.312;2023-04-29T10:07:34;11.50;99.90
33699;DHT22;20032;52.436;13.312;2023-04-29T10:10:00;11.50;99.90
33699;DHT22;20032;52.436;13.312;2023-04-29T10:12:27;11.60;99.90
33699;DHT22;20032;52.436;13.312;2023-04-29T10:15:30;11.60;99.90
33699;DHT22;20032;52.436;13.312;2023-04-29T10:18:05;11.70;99.90
33699;DHT22;20032;52.436;13.312;2023-04-29T10:20:37;11.60;99.90
33699;DHT22;20032;52.436;13.312;2023-04-29T10:23:05;11.70;99.90
33699;DHT22;20032;52.436;13.312;2023-04-29T10:25:32;11.70;99.90
33699;DHT22;20032;52.436;13.312;2023-04-29T10:28:02;11.70;99.90
33699;DHT22;20032;52.436;13.312;2023-04-29T10:30:28;11.70;99.90
33699;DHT22;20032;52.436;13.312;2023-04-29T10:32:55;11.70;99.90
33699;DHT22;20032;52.436;13.312;2023-04-29T10:35:21;11.60;99.90
33699;DHT22;20032;52.436;13.312;2023-04-29T10:37:50;11.80;99.90
33699;DHT22;20032;52.436;13.312;2023-04-29T10:40:21;11.80;99.90
33699;DHT22;20032;52.436;13.312;2023-04-29T10:42:50;11.80;99.90
33699;DHT22;20032;52.436;13.312;2023-04-29T10:48:07;11.80;99.90
33699;DHT22;20032;52.436;13.312;2023-04-29T10:50:39;11.80;99.90
33699;DHT22;20032;52.436;13.312;2023-04-29T10:53:09;11.80;99.90
33699;DHT22;20032;52.436;13.312;2023-04-29T10:55:36;11.70;99.90
33699;DHT22;20032;52.436;13.312;2023-04-29T10:58:03;11.80;99.90
33699;DHT22;20032;52.436;13.312;2023-04-29T11:00:30;11.80;99.90
33699;DHT22;20032;52.436;13.312;2023-04-29T11:02:57;11.80;99.90
33699;DHT22;20032;52.436;13.312;2023-04-29T11:05:38;11.90;99.90
33699;DHT22;20032;52.436;13.312;2023-04-29T11:08:09;11.80;99.90
33699;DHT22;20032;52.436;13.312;2023-04-29T11:10:39;12.00;99.90
33699;DHT22;20032;52.436;13.312;2023-04-29T11:13:26;12.00;99.90
33699;DHT22;20032;52.436;13.312;2023-04-29T11:15:53;12.10;99.90
33699;DHT22;20032;52.436;13.312;2023-04-29T11:18:27;12.10;99.90
33699;DHT22;20032;52.436;13.312;2023-04-29T11:21:10;12.20;99.90
33699;DHT22;20032;52.436;13.312;2023-04-29T11:23:37;12.30;99.90
33699;DHT22;20032;52.436;13.312;2023-04-29T11:26:03;12.40;99.90
33699;DHT22;20032;52.436;13.312;2023-04-29T11:28:30;12.50;99.90
33699;DHT22;20032;52.436;13.312;2023-04-29T11:30:57;12.50;99.90
33699;DHT22;20032;52.436;13.312;2023-04-29T11:33:23;12.60;99.90
33699;DHT22;20032;52.436;13.312;2023-04-29T11:35:49;12.70;99.90
33699;DHT22;20032;52.436;13.312;2023-04-29T11:38:16;12.70;99.90
33699;DHT22;20032;52.436;13.312;2023-04-29T11:40:47;12.70;99.90
33699;DHT22;20032;52.436;13.312;2023-04-29T11:43:16;12.80;99.90
33699;DHT22;20032;52.436;13.312;2023-04-29T11:45:45;12.80;99.90
33699;DHT22;20032;52.436;13.312;2023-04-29T11:48:19;12.70;99.90
33699;DHT22;20032;52.436;13.312;2023-04-29T11:50:46;12.80;99.90
33699;DHT22;20032;52.436;13.312;2023-04-29T11:53:13;12.70;99.90
33699;DHT22;20032;52.436;13.312;2023-04-29T11:55:41;12.80;99.90
33699;DHT22;20032;52.436;13.312;2023-04-29T11:58:07;12.70;99.90
33699;DHT22;20032;52.436;13.312;2023-04-29T12:00:32;12.60;99.90
33699;DHT22;20032;52.436;13.312;2023-04-29T12:02:58;12.70;99.90
33699;DHT22;20032;52.436;13.312;2023-04-29T12:05:25;12.70;99.90
33699;DHT22;20032;52.436;13.312;2023-04-29T12:07:50;12.90;99.90
33699;DHT22;20032;52.436;13.312;2023-04-29T12:10:16;13.00;99.90
33699;DHT22;20032;52.436;13.312;2023-04-29T12:12:42;13.00;99.90
33699;DHT22;20032;52.436;13.312;2023-04-29T12:15:08;13.00;99.90
33699;DHT22;20032;52.436;13.312;2023-04-29T12:17:34;13.10;99.90
33699;DHT22;20032;52.436;13.312;2023-04-29T12:20:00;12.90;99.90
33699;DHT22;20032;52.436;13.312;2023-04-29T12:22:33;12.90;99.90
33699;DHT22;20032;52.436;13.312;2023-04-29T12:25:01;12.90;99.90
33699;DHT22;20032;52.436;13.312;2023-04-29T12:27:27;13.00;99.90
33699;DHT22;20032;52.436;13.312;2023-04-29T12:29:55;13.00;99.90
33699;DHT22;20032;52.436;13.312;2023-04-29T12:32:22;13.10;99.90
33699;DHT22;20032;52.436;13.312;2023-04-29T12:34:50;13.00;99.90
33699;DHT22;20032;52.436;13.312;2023-04-29T12:37:16;13.00;99.90
33699;DHT22;20032;52.436;13.312;2023-04-29T12:39:42;13.00;99.90
33699;DHT22;20032;52.436;13.312;2023-04-29T12:42:14;12.90;99.90
33699;DHT22;20032;52.436;13.312;2023-04-29T12:44:43;12.90;99.90
33699;DHT22;20032;52.436;13.312;2023-04-29T12:47:10;13.00;99.90
33699;DHT22;20032;52.436;13.312;2023-04-29T12:49:36;13.10;99.90
33699;DHT22;20032;52.436;13.312;2023-04-29T12:52:02;13.20;99.90
33699;DHT22;20032;52.436;13.312;2023-04-29T12:54:28;13.30;99.90
33699;DHT22;20032;52.436;13.312;2023-04-29T12:56:54;13.50;99.90
33699;DHT22;20032;52.436;13.312;2023-04-29T12:59:20;13.70;99.90
33699;DHT22;20032;52.436;13.312;2023-04-29T13:01:45;13.90;99.90
33699;DHT22;20032;52.436;13.312;2023-04-29T13:04:11;14.00;99.90
33699;DHT22;20032;52.436;13.312;2023-04-29T13:06:36;14.10;99.90
33699;DHT22;20032;52.436;13.312;2023-04-29T13:09:05;14.10;99.90
33699;DHT22;20032;52.436;13.312;2023-04-29T13:11:31;14.20;99.90
33699;DHT22;20032;52.436;13.312;2023-04-29T13:13:56;14.20;99.90
33699;DHT22;20032;52.436;13.312;2023-04-29T13:16:22;14.30;99.90
33699;DHT22;20032;52.436;13.312;2023-04-29T13:18:48;14.50;99.90
33699;DHT22;20032;52.436;13.312;2023-04-29T13:21:14;14.70;99.90
33699;DHT22;20032;52.436;13.312;2023-04-29T13:23:40;14.80;99.90
33699;DHT22;20032;52.436;13.312;2023-04-29T13:26:06;14.90;99.90
33699;DHT22;20032;52.436;13.312;2023-04-29T13:28:33;15.00;99.90
33699;DHT22;20032;52.436;13.312;2023-04-29T13:30:58;14.90;99.90
33699;DHT22;20032;52.436;13.312;2023-04-29T13:33:24;14.80;99.90
33699;DHT22;20032;52.436;13.312;2023-04-29T13:35:49;14.80;99.90
33699;DHT22;20032;52.436;13.312;2023-04-29T13:38:15;14.90;99.90
33699;DHT22;20032;52.436;13.312;2023-04-29T13:40:41;14.90;99.90
33699;DHT22;20032;52.436;13.312;2023-04-29T13:43:07;15.00;99.90
33699;DHT22;20032;52.436;13.312;2023-04-29T13:45:33;15.00;99.90
33699;DHT22;20032;52.436;13.312;2023-04-29T13:47:59;15.00;99.90
33699;DHT22;20032;52.436;13.312;2023-04-29T13:50:25;15.10;99.90
33699;DHT22;20032;52.436;13.312;2023-04-29T13:52:51;15.40;99.90
33699;DHT22;20032;52.436;13.312;2023-04-29T13:55:16;16.00;99.90
33699;DHT22;20032;52.436;13.312;2023-04-29T13:57:41;16.60;99.90
33699;DHT22;20032;52.436;13.312;2023-04-29T14:00:07;16.50;99.90
33699;DHT22;20032;52.436;13.312;2023-04-29T14:02:33;16.30;99.90
33699;DHT22;20032;52.436;13.312;2023-04-29T14:04:59;16.20;99.90
33699;DHT22;20032;52.436;13.312;2023-04-29T14:07:24;16.00;99.90
33699;DHT22;20032;52.436;13.312;2023-04-29T14:09:50;15.90;99.90
33699;DHT22;20032;52.436;13.312;2023-04-29T14:12:16;15.70;99.90
33699;DHT22;20032;52.436;13.312;2023-04-29T14:14:41;15.50;99.90
33699;DHT22;20032;52.436;13.312;2023-04-29T14:17:07;15.30;99.90
33699;DHT22;20032;52.436;13.312;2023-04-29T14:19:33;15.10;99.90
33699;DHT22;20032;52.436;13.312;2023-04-29T14:21:58;15.00;99.90
33699;DHT22;20032;52.436;13.312;2023-04-29T14:24:24;15.00;99.90
33699;DHT22;20032;52.436;13.312;2023-04-29T14:26:50;14.90;99.90
33699;DHT22;20032;52.436;13.312;2023-04-29T14:29:17;14.80;99.90
33699;DHT22;20032;52.436;13.312;2023-04-29T14:31:43;14.80;99.90
33699;DHT22;20032;52.436;13.312;2023-04-29T14:34:08;14.90;99.90
33699;DHT22;20032;52.436;13.312;2023-04-29T14:36:34;14.90;99.90
33699;DHT22;20032;52.436;13.312;2023-04-29T14:39:00;15.00;99.90
33699;DHT22;20032;52.436;13.312;2023-04-29T14:41:26;15.00;99.90
33699;DHT22;20032;52.436;13.312;2023-04-29T14:43:52;15.10;99.90
33699;DHT22;20032;52.436;13.312;2023-04-29T14:46:18;15.40;99.90
33699;DHT22;20032;52.436;13.312;2023-04-29T14:48:43;15.90;99.90
33699;DHT22;20032;52.436;13.312;2023-04-29T14:51:09;17.00;99.90
33699;DHT22;20032;52.436;13.312;2023-04-29T14:53:34;18.00;99.90
33699;DHT22;20032;52.436;13.312;2023-04-29T14:56:00;19.50;99.90
33699;DHT22;20032;52.436;13.312;2023-04-29T14:58:26;20.50;99.90
33699;DHT22;20032;52.436;13.312;2023-04-29T15:00:51;20.20;99.90
33699;DHT22;20032;52.436;13.312;2023-04-29T15:03:17;19.20;99.90
33699;DHT22;20032;52.436;13.312;2023-04-29T15:05:43;18.40;99.90
33699;DHT22;20032;52.436;13.312;2023-04-29T15:08:09;18.00;99.90
33699;DHT22;20032;52.436;13.312;2023-04-29T15:10:34;17.90;99.90
33699;DHT22;20032;52.436;13.312;2023-04-29T15:13:00;17.40;99.90
33699;DHT22;20032;52.436;13.312;2023-04-29T15:15:26;17.00;99.90
33699;DHT22;20032;52.436;13.312;2023-04-29T15:17:51;16.60;99.90